createdAt,value
2023-02-23T00:01:49.443Z,11.60
2023-02-23T00:06:52.457Z,11.15
2023-02-23T00:11:56.782Z,11.43
2023-02-23T00:17:00.194Z,11.18
2023-02-23T00:22:01.970Z,11.15
2023-02-23T00:27:06.460Z,10.20
2023-02-23T00:32:08.313Z,11.18
2023-02-23T00:37:10.259Z,10.85
2023-02-23T00:42:13.622Z,11.18
2023-02-23T00:47:15.927Z,10.68
2023-02-23T00:52:17.704Z,11.18
2023-02-23T00:57:19.437Z,10.60
2023-02-23T01:02:21.216Z,11.48
2023-02-23T01:07:25.768Z,10.88
2023-02-23T01:12:27.480Z,11.50
2023-02-23T01:17:30.622Z,10.70
2023-02-23T01:22:32.391Z,11.20
2023-02-23T01:27:35.533Z,11.70
2023-02-23T01:32:38.129Z,10.10
2023-02-23T01:37:42.618Z,9.93
2023-02-23T01:42:46.964Z,11.27
2023-02-23T01:47:49.328Z,11.65
2023-02-23T01:52:52.420Z,12.07
2023-02-23T01:58:16.672Z,12.40
2023-02-23T02:03:29.572Z,11.57
2023-02-23T02:08:34.414Z,11.77
2023-02-23T02:13:37.661Z,12.40
2023-02-23T02:19:06.344Z,12.55
2023-02-23T02:24:47.649Z,12.85
2023-02-23T02:30:27.132Z,14.32
2023-02-23T02:35:55.471Z,14.50
2023-02-23T02:41:12.210Z,12.30
2023-02-23T02:46:37.566Z,11.07
2023-02-23T02:51:53.785Z,12.65
2023-02-23T02:57:00.553Z,13.27
2023-02-23T03:02:24.624Z,13.52
2023-02-23T03:08:01.178Z,12.65
2023-02-23T03:14:01.201Z,11.48
2023-02-23T03:19:33.709Z,13.88
2023-02-23T03:25:19.051Z,13.98
2023-02-23T03:30:45.782Z,13.48
2023-02-23T03:36:22.327Z,16.33
2023-02-23T03:41:45.271Z,26.10
2023-02-23T03:47:07.209Z,17.80
2023-02-23T03:52:42.379Z,18.13
2023-02-23T03:58:07.609Z,17.27
2023-02-23T04:03:34.364Z,16.73
2023-02-23T04:08:57.122Z,15.68
2023-02-23T04:14:02.849Z,14.60
2023-02-23T04:19:04.951Z,16.27
2023-02-23T04:24:06.802Z,17.33
2023-02-23T04:29:08.855Z,22.02
2023-02-23T04:34:10.725Z,16.20
2023-02-23T04:39:12.873Z,13.55
2023-02-23T04:44:14.976Z,13.40
2023-02-23T04:49:16.813Z,12.65
2023-02-23T04:54:18.548Z,13.38
2023-02-23T04:59:20.391Z,13.00
2023-02-23T05:04:22.754Z,14.35
2023-02-23T05:09:24.615Z,12.95
2023-02-23T05:14:27.250Z,13.73
2023-02-23T05:19:29.144Z,15.43
2023-02-23T05:24:31.144Z,15.35
2023-02-23T05:29:32.907Z,16.38
2023-02-23T05:34:36.152Z,14.93
2023-02-23T05:39:38.258Z,16.02
2023-02-23T05:44:39.982Z,16.45
2023-02-23T05:49:43.136Z,15.43
2023-02-23T05:54:46.745Z,15.73
2023-02-23T05:59:48.550Z,16.60
2023-02-23T06:04:52.116Z,17.35
2023-02-23T06:09:54.177Z,16.42
2023-02-23T06:14:57.368Z,14.75
2023-02-23T06:20:02.122Z,14.65
2023-02-23T06:25:05.107Z,15.02
2023-02-23T06:30:08.241Z,16.77
2023-02-23T06:35:10.263Z,16.58
2023-02-23T06:40:12.136Z,17.10
2023-02-23T06:45:14.192Z,15.27
2023-02-23T06:50:17.277Z,17.83
2023-02-23T06:55:19.406Z,16.63
2023-02-23T07:00:22.194Z,16.58
2023-02-23T07:05:24.302Z,16.75
2023-02-23T07:10:26.234Z,17.25
2023-02-23T07:15:28.226Z,16.08
2023-02-23T07:20:31.899Z,15.60
2023-02-23T07:25:33.993Z,15.32
2023-02-23T07:30:36.468Z,15.57
2023-02-23T07:35:42.861Z,15.85
2023-02-23T07:40:45.508Z,18.48
2023-02-23T07:45:47.569Z,17.83
2023-02-23T07:50:49.290Z,17.60
2023-02-23T07:55:58.432Z,20.70
2023-02-23T08:01:02.439Z,20.83
2023-02-23T08:06:04.322Z,21.70
2023-02-23T08:11:06.356Z,22.15
2023-02-23T08:16:08.484Z,23.48
2023-02-23T08:21:10.767Z,23.65
2023-02-23T08:26:12.775Z,24.25
2023-02-23T08:31:16.546Z,43.47
2023-02-23T08:36:19.009Z,38.83
2023-02-23T08:41:21.891Z,25.88
2023-02-23T08:46:23.845Z,27.13
2023-02-23T08:51:25.748Z,27.88
2023-02-23T08:56:34.925Z,27.67
2023-02-23T09:01:37.599Z,26.02
2023-02-23T09:06:41.241Z,28.33
2023-02-23T09:11:43.366Z,24.33
2023-02-23T09:16:46.146Z,21.10
2023-02-23T09:21:47.974Z,20.25
2023-02-23T09:26:49.897Z,16.45
2023-02-23T09:31:53.073Z,18.77
2023-02-23T09:36:56.064Z,17.23
2023-02-23T09:42:16.216Z,16.98
2023-02-23T09:47:40.880Z,15.18
2023-02-23T09:52:45.438Z,16.27
2023-02-23T09:57:49.554Z,15.95
2023-02-23T10:03:17.105Z,15.23
2023-02-23T10:08:45.400Z,17.58
2023-02-23T10:14:12.472Z,15.15
2023-02-23T10:19:37.973Z,11.02
2023-02-23T10:24:45.317Z,11.63
2023-02-23T10:29:54.914Z,10.40
2023-02-23T10:34:57.075Z,10.63
2023-02-23T10:39:59.247Z,8.75
2023-02-23T10:45:01.609Z,8.60
2023-02-23T10:50:03.796Z,7.63
2023-02-23T10:55:07.736Z,7.85
2023-02-23T11:00:16.913Z,8.00
2023-02-23T11:05:27.851Z,6.50
2023-02-23T11:10:30.325Z,4.65
2023-02-23T11:15:50.272Z,4.25
2023-02-23T11:20:53.024Z,4.65
2023-02-23T11:26:00.208Z,4.07
2023-02-23T11:31:10.009Z,4.65
2023-02-23T11:36:22.536Z,3.83
2023-02-23T11:41:24.889Z,4.07
2023-02-23T11:46:28.721Z,4.00
2023-02-23T11:51:41.479Z,4.07
2023-02-23T11:56:51.016Z,3.75
2023-02-23T12:01:55.072Z,4.45
2023-02-23T12:07:26.032Z,3.85
2023-02-23T12:12:31.140Z,3.13
2023-02-23T12:17:49.599Z,4.68
2023-02-23T12:23:23.428Z,3.22
2023-02-23T12:28:52.774Z,2.95
2023-02-23T12:34:31.296Z,3.20
2023-02-23T12:39:36.681Z,3.47
2023-02-23T12:44:49.134Z,2.78
2023-02-23T12:50:25.930Z,3.10
2023-02-23T12:55:49.269Z,3.28
2023-02-23T13:01:03.637Z,3.40
2023-02-23T13:06:17.082Z,3.30
2023-02-23T13:11:34.498Z,2.80
2023-02-23T13:16:48.914Z,3.42
2023-02-23T13:22:28.404Z,3.58
2023-02-23T13:27:35.472Z,2.83
2023-02-23T13:32:39.229Z,3.00
2023-02-23T13:37:45.968Z,2.40
2023-02-23T13:43:03.128Z,2.40
2023-02-23T13:48:30.846Z,2.95
2023-02-23T13:53:44.281Z,2.70
2023-02-23T13:58:52.634Z,2.58
2023-02-23T14:03:57.528Z,3.08
2023-02-23T14:09:24.379Z,2.80
2023-02-23T14:14:32.036Z,2.80
2023-02-23T14:19:41.133Z,2.70
2023-02-23T14:24:43.296Z,2.90
2023-02-23T14:30:10.979Z,2.42
2023-02-23T14:35:37.746Z,2.40
2023-02-23T14:40:42.824Z,2.42
2023-02-23T14:51:40.501Z,4.38
2023-02-23T14:57:20.201Z,2.75
2023-02-23T15:02:24.850Z,2.50
2023-02-23T15:07:33.490Z,3.95
2023-02-23T15:12:38.054Z,2.85
2023-02-23T15:17:44.079Z,3.85
2023-02-23T15:22:55.020Z,5.43
2023-02-23T15:27:56.838Z,5.57
2023-02-23T15:33:14.916Z,2.70
2023-02-23T15:38:42.255Z,3.08
2023-02-23T15:43:45.069Z,2.67
2023-02-23T15:48:49.464Z,3.05
2023-02-23T15:53:51.742Z,3.45
2023-02-23T15:59:03.078Z,4.03
2023-02-23T16:04:16.201Z,6.40
2023-02-23T16:09:21.287Z,4.30
2023-02-23T16:14:26.143Z,3.17
2023-02-23T16:19:29.643Z,2.80
2023-02-23T16:24:34.617Z,2.25
2023-02-23T16:29:44.027Z,2.75
2023-02-23T16:35:09.429Z,3.08
2023-02-23T16:40:13.219Z,6.82
2023-02-23T16:45:17.156Z,4.70
2023-02-23T16:50:24.486Z,4.32
2023-02-23T16:55:29.738Z,3.25
2023-02-23T17:00:33.889Z,5.20
2023-02-23T17:05:35.646Z,4.55
2023-02-23T17:10:37.701Z,5.57
2023-02-23T17:15:42.307Z,5.25
2023-02-23T17:20:44.412Z,5.15
2023-02-23T17:25:46.542Z,5.70
2023-02-23T17:30:48.679Z,5.95
2023-02-23T17:35:50.548Z,5.00
2023-02-23T17:40:52.459Z,6.32
2023-02-23T17:45:57.218Z,10.82
2023-02-23T17:51:04.840Z,5.97
2023-02-23T17:56:07.453Z,4.57
2023-02-23T18:01:09.879Z,8.45
2023-02-23T18:06:13.385Z,11.02
2023-02-23T18:11:18.535Z,9.27
2023-02-23T18:16:21.659Z,8.00
2023-02-23T18:21:23.689Z,8.50
2023-02-23T18:26:25.664Z,7.82
2023-02-23T18:31:28.866Z,7.65
2023-02-23T18:36:31.920Z,8.27
2023-02-23T18:41:34.018Z,7.05
2023-02-23T18:46:36.280Z,7.93
2023-02-23T18:51:38.085Z,8.18
2023-02-23T18:56:40.221Z,6.30
2023-02-23T19:01:45.291Z,6.47
2023-02-23T19:06:47.448Z,7.40
2023-02-23T19:11:50.653Z,7.85
2023-02-23T19:16:52.496Z,7.40
2023-02-23T19:21:54.428Z,9.13
2023-02-23T19:26:56.224Z,13.07
2023-02-23T19:31:58.334Z,11.13
2023-02-23T19:37:00.215Z,13.82
2023-02-23T19:42:02.650Z,9.10
2023-02-23T19:47:04.392Z,8.63
2023-02-23T19:52:06.360Z,8.73
2023-02-23T19:57:09.948Z,7.65
2023-02-23T20:02:11.869Z,7.32
2023-02-23T20:07:14.461Z,7.95
2023-02-23T20:12:16.201Z,7.97
2023-02-23T20:17:17.984Z,9.77
2023-02-23T20:22:19.858Z,10.90
2023-02-23T20:27:22.633Z,10.48
2023-02-23T20:32:24.611Z,9.85
2023-02-23T20:37:26.765Z,10.00
2023-02-23T20:42:28.635Z,9.27
2023-02-23T20:47:30.410Z,8.40
2023-02-23T20:52:32.145Z,7.95
2023-02-23T20:57:34.970Z,7.72
2023-02-23T21:02:38.848Z,8.88
2023-02-23T21:07:40.742Z,8.50
2023-02-23T21:12:42.598Z,7.30
2023-02-23T21:17:44.437Z,6.63
2023-02-23T21:22:49.263Z,6.57
2023-02-23T21:27:51.500Z,7.22
2023-02-23T21:32:53.692Z,12.95
2023-02-23T21:37:56.884Z,12.23
2023-02-23T21:42:58.694Z,14.45
2023-02-23T21:48:00.588Z,10.50
2023-02-23T21:53:02.394Z,10.65
2023-02-23T21:58:06.940Z,10.13
2023-02-23T22:03:09.510Z,9.63
2023-02-23T22:08:15.789Z,8.88
2023-02-23T22:13:17.821Z,8.77
2023-02-23T22:18:19.560Z,8.45
2023-02-23T22:23:21.372Z,10.20
2023-02-23T22:28:23.149Z,8.00
2023-02-23T22:33:24.939Z,6.82
2023-02-23T22:38:26.719Z,7.07
2023-02-23T22:43:30.297Z,8.40
2023-02-23T22:48:32.639Z,7.00
2023-02-23T22:53:34.597Z,8.75
2023-02-23T22:58:36.824Z,9.65
2023-02-23T23:03:45.709Z,9.20
2023-02-23T23:08:49.428Z,9.98
2023-02-23T23:13:54.216Z,12.68
2023-02-23T23:19:00.630Z,10.93
2023-02-23T23:24:07.631Z,9.32
2023-02-23T23:29:11.912Z,10.02
2023-02-23T23:34:16.885Z,12.20
2023-02-23T23:39:21.337Z,9.93
2023-02-23T23:44:29.100Z,7.97
2023-02-23T23:49:37.849Z,7.28
2023-02-23T23:54:41.218Z,7.88
2023-02-23T23:59:46.150Z,8.10
